Time;durP1;ratioP1;P1;durP2;ratioP2;P2;SDS_P1;SDS_P2;PMS_P1;PMS_P2;Temp;Humidity;BMP_temperature;BMP_pressure;BME280_temperature;BME280_humidity;BME280_pressure;Samples;Min_cycle;Max_cycle;Signal;HPM_P1;HPM_P2
2023/09/07 00:01:15;;;;;;;7.27;5.77;;;;;;;15.24;100.00;100859.00;4984244;28;20665;-70
2023/09/07 00:03:42;;;;;;;9.50;6.20;;;;;;;15.21;100.00;100855.41;4979286;28;20197;-71
2023/09/07 00:06:09;;;;;;;6.93;5.63;;;;;;;15.14;100.00;100859.84;4973451;28;20265;-70
2023/09/07 00:08:35;;;;;;;7.57;5.63;;;;;;;15.03;100.00;100850.91;4980746;28;20204;-70
2023/09/07 00:11:06;;;;;;;11.37;5.97;;;;;;;14.98;100.00;100856.25;4981213;28;20210;-70
2023/09/07 00:13:33;;;;;;;7.50;5.53;;;;;;;14.91;100.00;100854.44;4982305;28;20304;-70
2023/09/07 00:16:01;;;;;;;7.87;5.40;;;;;;;14.87;100.00;100851.78;4979518;28;20225;-70
2023/09/07 00:18:28;;;;;;;7.73;5.83;;;;;;;14.85;100.00;100854.44;4974284;28;20713;-70
2023/09/07 00:20:55;;;;;;;7.13;5.20;;;;;;;14.80;100.00;100852.59;4991854;28;20207;-70
2023/09/07 00:23:22;;;;;;;7.97;5.63;;;;;;;14.74;100.00;100846.38;4983834;28;20237;-70
2023/09/07 00:25:48;;;;;;;7.90;5.53;;;;;;;14.69;100.00;100852.56;4982409;28;20244;-70
2023/09/07 00:28:15;;;;;;;7.60;5.57;;;;;;;14.67;100.00;100851.69;4984563;28;20295;-70
2023/09/07 00:30:41;;;;;;;7.60;6.20;;;;;;;14.67;100.00;100849.00;4976766;28;20791;-70
2023/09/07 00:33:08;;;;;;;6.53;5.13;;;;;;;14.66;100.00;100852.56;4983291;28;20229;-70
2023/09/07 00:35:35;;;;;;;9.43;5.00;;;;;;;14.65;100.00;100850.78;4976751;28;20204;-70
2023/09/07 00:38:01;;;;;;;9.67;5.83;;;;;;;14.60;100.00;100853.44;4982712;28;20201;-70
2023/09/07 00:40:28;;;;;;;6.83;5.37;;;;;;;14.60;100.00;100841.88;4980974;28;20573;-70
2023/09/07 00:42:55;;;;;;;7.87;5.50;;;;;;;14.57;100.00;100844.53;5000778;28;20220;-70
2023/09/07 00:45:22;;;;;;;7.10;4.93;;;;;;;14.50;100.00;100848.97;4981365;28;20301;-71
2023/09/07 00:47:48;;;;;;;7.17;4.90;;;;;;;14.43;100.00;100849.81;4986096;28;20669;-71
2023/09/07 00:50:16;;;;;;;6.83;5.30;;;;;;;14.35;100.00;100847.06;4981541;28;20220;-70
2023/09/07 00:52:43;;;;;;;8.73;5.10;;;;;;;14.31;100.00;100847.91;4984296;28;20224;-71
2023/09/07 00:55:10;;;;;;;5.57;4.73;;;;;;;14.25;100.00;100845.22;4983034;28;20200;-70
2023/09/07 00:57:39;;;;;;;7.07;5.20;;;;;;;14.22;100.00;100841.66;4979825;28;20293;-71
2023/09/07 01:00:07;;;;;;;6.70;4.67;;;;;;;14.29;100.00;100844.34;4986503;28;20290;-70
2023/09/07 01:02:34;;;;;;;6.97;5.33;;;;;;;14.33;100.00;100842.59;4987307;28;20623;-71
2023/09/07 01:05:05;;;;;;;6.83;5.40;;;;;;;14.35;100.00;100841.72;4979782;28;20220;-71
2023/09/07 01:07:43;;;;;;;6.30;4.73;;;;;;;14.33;100.00;100829.28;4998694;28;20201;-71
2023/09/07 01:10:09;;;;;;;6.80;5.20;;;;;;;14.33;100.00;100834.59;4992165;28;20201;-71
2023/09/07 01:12:36;;;;;;;6.33;4.73;;;;;;;14.27;100.00;100832.81;4985663;28;20228;-71
2023/09/07 01:15:04;;;;;;;6.43;5.00;;;;;;;14.22;100.00;100836.31;4984071;28;20661;-70
2023/09/07 01:17:33;;;;;;;10.23;5.70;;;;;;;14.17;100.00;100835.41;4981683;28;20296;-70
2023/09/07 01:20:09;;;;;;;8.30;5.10;;;;;;;14.15;100.00;100831.84;4988347;28;20204;-70
2023/09/07 01:22:37;;;;;;;6.40;5.07;;;;;;;14.10;100.00;100834.50;5047780;23;20300;-74
2023/09/07 01:25:06;;;;;;;7.03;4.77;;;;;;;14.19;100.00;100833.66;4995212;28;20291;-73
2023/09/07 01:27:34;;;;;;;6.83;4.80;;;;;;;14.23;100.00;100833.66;5005679;28;20652;-74
2023/09/07 01:30:02;;;;;;;5.30;4.47;;;;;;;14.31;100.00;100833.72;4999075;28;20208;-73
2023/09/07 01:32:29;;;;;;;6.90;5.00;;;;;;;14.40;100.00;100828.41;4988666;28;20582;-73
2023/09/07 01:34:57;;;;;;;5.87;4.33;;;;;;;14.46;100.00;100830.28;4977900;28;20197;-74
2023/09/07 01:37:24;;;;;;;8.23;4.77;;;;;;;14.54;100.00;100834.75;4974139;28;20292;-73
2023/09/07 01:39:50;;;;;;;6.70;5.07;;;;;;;14.48;100.00;100820.53;4971485;28;20213;-73
2023/09/07 01:42:17;;;;;;;7.20;4.97;;;;;;;14.39;100.00;100826.63;4972890;28;20312;-73
2023/09/07 01:44:43;;;;;;;7.83;5.00;;;;;;;14.39;100.00;100831.97;4983245;28;20225;-73
2023/09/07 01:47:10;;;;;;;6.77;4.80;;;;;;;14.21;100.00;100827.44;4986992;28;20300;-73
2023/09/07 01:49:36;;;;;;;5.80;4.57;;;;;;;14.08;100.00;100830.94;4984387;28;20232;-73
2023/09/07 01:52:03;;;;;;;5.87;4.80;;;;;;;14.01;100.00;100835.34;4982311;28;20228;-73
2023/09/07 01:54:30;;;;;;;6.00;4.80;;;;;;;13.96;100.00;100841.47;4979999;28;20252;-74
2023/09/07 01:56:57;;;;;;;6.43;4.40;;;;;;;13.91;100.00;100838.78;4986931;28;20197;-73
2023/09/07 01:59:24;;;;;;;5.53;4.43;;;;;;;13.93;100.00;100837.03;4983134;28;20299;-73
2023/09/07 02:01:50;;;;;;;7.63;4.30;;;;;;;14.00;100.00;100830.84;4990959;28;20228;-76
2023/09/07 02:04:16;;;;;;;7.10;4.53;;;;;;;14.06;100.00;100824.69;5009448;28;20205;-76
2023/09/07 02:06:43;;;;;;;5.93;4.20;;;;;;;14.11;100.00;100830.94;5001164;28;20558;-74
2023/09/07 02:09:10;;;;;;;5.43;4.27;;;;;;;14.16;100.00;100828.31;4993720;28;20209;-73
2023/09/07 02:11:36;;;;;;;6.67;4.33;;;;;;;14.10;100.00;100824.72;4986567;28;20231;-75
2023/09/07 02:14:03;;;;;;;5.03;4.20;;;;;;;14.06;100.00;100822.94;4981975;28;20289;-73
2023/09/07 02:16:30;;;;;;;6.23;4.70;;;;;;;13.98;100.00;100823.72;4975499;28;20224;-73
2023/09/07 02:19:06;;;;;;;6.37;4.57;;;;;;;14.02;100.00;100830.91;4981320;28;20733;-74
2023/09/07 02:21:33;;;;;;;5.77;4.30;;;;;;;14.08;100.00;100825.59;4980007;28;20611;-73
2023/09/07 02:23:59;;;;;;;5.47;4.40;;;;;;;14.15;100.00;100822.09;4985177;28;20232;-74
2023/09/07 02:26:26;;;;;;;5.67;4.40;;;;;;;14.09;100.00;100822.06;4981241;28;20268;-73
2023/09/07 02:28:52;;;;;;;7.17;4.93;;;;;;;14.02;100.00;100815.81;4986350;28;20197;-73
2023/09/07 02:31:19;;;;;;;4.90;4.37;;;;;;;13.95;100.00;100815.72;4982813;28;20288;-73
2023/09/07 02:33:46;;;;;;;7.13;4.97;;;;;;;13.86;100.00;100818.34;4981985;28;20217;-73
2023/09/07 02:36:12;;;;;;;4.67;4.10;;;;;;;13.77;100.00;100822.72;4977119;28;20200;-73
2023/09/07 02:38:41;;;;;;;5.40;4.00;;;;;;;13.69;100.00;100828.88;4982106;28;20664;-73
2023/09/07 02:41:08;;;;;;;7.90;4.83;;;;;;;13.61;100.00;100835.88;4971548;28;20236;-74
2023/09/07 02:43:34;;;;;;;6.03;4.40;;;;;;;13.52;100.00;100826.06;4992249;28;20247;-73
2023/09/07 02:46:01;;;;;;;6.50;4.40;;;;;;;13.45;100.00;100830.44;4976274;28;20227;-73
2023/09/07 02:48:27;;;;;;;6.17;4.70;;;;;;;13.51;100.00;100826.06;4974276;28;20210;-72
2023/09/07 02:50:54;;;;;;;6.13;4.83;;;;;;;13.53;100.00;100819.84;4983104;28;20201;-73
2023/09/07 02:53:20;;;;;;;6.57;4.57;;;;;;;13.65;100.00;100817.31;4973165;28;20276;-74
2023/09/07 02:55:49;;;;;;;6.10;4.70;;;;;;;13.69;100.00;100824.44;4978500;28;20240;-73
2023/09/07 02:58:15;;;;;;;5.60;4.40;;;;;;;13.61;100.00;100820.84;4974595;28;20276;-73
2023/09/07 03:00:46;;;;;;;6.13;5.07;;;;;;;13.51;100.00;100812.75;4995972;28;20288;-72
2023/09/07 03:03:14;;;;;;;5.30;4.23;;;;;;;13.38;100.00;100812.66;4990216;28;20724;-73
2023/09/07 03:05:42;;;;;;;5.57;4.30;;;;;;;13.26;100.00;100814.31;4970800;28;20223;-73
2023/09/07 03:08:08;;;;;;;7.70;4.50;;;;;;;13.18;100.00;100817.78;4978597;28;20205;-73
2023/09/07 03:10:36;;;;;;;5.43;4.33;;;;;;;13.11;100.00;100817.66;4978977;28;20690;-73
2023/09/07 03:13:03;;;;;;;6.07;4.70;;;;;;;13.10;100.00;100818.53;4984806;28;20626;-73
2023/09/07 03:15:29;;;;;;;5.77;4.93;;;;;;;13.03;100.00;100812.28;4985366;28;20196;-72
2023/09/07 03:17:55;;;;;;;7.47;4.57;;;;;;;13.10;100.00;100816.78;4978166;28;20201;-74
2023/09/07 03:20:22;;;;;;;6.23;4.97;;;;;;;13.15;100.00;100817.72;4974459;28;20213;-73
2023/09/07 03:22:48;;;;;;;6.87;4.97;;;;;;;13.09;100.00;100812.34;4980792;28;20224;-73
2023/09/07 03:25:15;;;;;;;9.60;5.27;;;;;;;13.04;100.00;100814.06;4982431;28;20220;-73
2023/09/07 03:27:41;;;;;;;5.67;4.23;;;;;;;13.01;100.00;100816.69;4985836;28;20267;-73
2023/09/07 03:30:08;;;;;;;6.57;5.20;;;;;;;12.98;100.00;100816.66;4977845;28;20205;-73
2023/09/07 03:32:34;;;;;;;6.87;5.27;;;;;;;12.97;100.00;100822.84;4976271;28;20216;-73
2023/09/07 03:35:07;;;;;;;6.77;5.00;;;;;;;12.98;100.00;100823.75;4988200;28;20198;-73
2023/09/07 03:37:33;;;;;;;11.23;5.23;;;;;;;13.01;100.00;100816.69;4970268;28;20205;-73
2023/09/07 03:39:59;;;;;;;5.90;5.03;;;;;;;12.98;100.00;100815.78;4981837;28;20272;-73
2023/09/07 03:42:26;;;;;;;8.37;6.07;;;;;;;12.97;100.00;100822.84;4978446;28;20228;-73
2023/09/07 03:44:52;;;;;;;6.60;5.37;;;;;;;13.04;100.00;100829.13;4982526;28;20242;-74
2023/09/07 03:47:19;;;;;;;7.47;5.97;;;;;;;12.99;100.00;100825.53;4981009;28;20201;-72
2023/09/07 03:49:45;;;;;;;7.27;5.67;;;;;;;13.07;100.00;100826.50;4979549;28;20212;-74
2023/09/07 03:52:12;;;;;;;14.07;6.20;;;;;;;13.10;100.00;100822.09;4976031;28;20436;-73
2023/09/07 03:54:38;;;;;;;8.80;5.90;;;;;;;13.09;100.00;100825.63;4978236;28;20206;-72
2023/09/07 03:57:04;;;;;;;7.60;5.77;;;;;;;13.09;100.00;100822.09;4980980;28;20209;-73
2023/09/07 03:59:31;;;;;;;9.53;5.63;;;;;;;13.11;100.00;100821.22;4975071;28;22840;-74
2023/09/07 04:01:57;;;;;;;10.30;6.03;;;;;;;13.06;100.00;100827.38;4969529;28;20230;-73
2023/09/07 04:04:24;;;;;;;7.70;5.80;;;;;;;13.00;100.00;100825.53;4970082;28;20445;-75
2023/09/07 04:06:51;;;;;;;6.67;5.23;;;;;;;12.93;100.00;100831.69;4974882;28;20221;-75
2023/09/07 04:09:17;;;;;;;7.37;5.33;;;;;;;12.93;100.00;100837.00;4972711;28;20209;-73
2023/09/07 04:11:43;;;;;;;6.87;5.87;;;;;;;12.88;100.00;100824.53;4986331;28;20662;-73
2023/09/07 04:14:10;;;;;;;7.30;5.50;;;;;;;12.95;100.00;100843.22;4981037;28;20244;-73
2023/09/07 04:16:37;;;;;;;8.37;6.10;;;;;;;12.89;100.00;100832.53;4976941;28;20687;-73
2023/09/07 04:19:07;;;;;;;7.87;6.10;;;;;;;12.85;100.00;100836.91;4982735;28;20279;-72
2023/09/07 04:21:33;;;;;;;8.87;6.30;;;;;;;12.83;100.00;100829.81;4986363;28;20581;-73
2023/09/07 04:24:00;;;;;;;8.47;6.10;;;;;;;12.79;100.00;100831.50;4979596;28;20209;-73
2023/09/07 04:26:26;;;;;;;8.70;6.43;;;;;;;12.81;100.00;100829.78;4983963;28;20221;-73
2023/09/07 04:28:52;;;;;;;7.40;6.00;;;;;;;12.82;100.00;100830.69;4980539;28;20289;-74
2023/09/07 04:31:20;;;;;;;8.23;6.47;;;;;;;12.95;100.00;100834.34;4978362;28;20205;-74
2023/09/07 04:33:47;;;;;;;12.03;7.20;;;;;;;12.99;100.00;100837.06;4979277;28;20248;-73
2023/09/07 04:36:14;;;;;;;9.33;6.60;;;;;;;13.11;100.00;100833.63;4979912;28;20282;-75
2023/09/07 04:38:41;;;;;;;8.00;6.40;;;;;;;13.06;100.00;100841.56;4985269;28;20204;-73
2023/09/07 04:41:12;;;;;;;8.80;6.50;;;;;;;13.02;100.00;100838.84;4984740;28;20197;-73
2023/09/07 04:43:42;;;;;;;11.40;7.13;;;;;;;13.09;100.00;100846.00;4979701;28;20575;-73
2023/09/07 04:46:13;;;;;;;11.47;7.07;;;;;;;13.11;100.00;100837.16;4984157;28;20217;-72
2023/09/07 04:48:41;;;;;;;10.03;7.17;;;;;;;13.06;100.00;100836.25;4983049;28;20204;-73
2023/09/07 04:51:09;;;;;;;9.07;6.70;;;;;;;13.01;100.00;100835.31;4978283;28;20736;-73
2023/09/07 04:53:39;;;;;;;8.67;6.60;;;;;;;12.96;100.00;100834.38;4976918;28;20242;-73
2023/09/07 04:56:06;;;;;;;9.60;7.20;;;;;;;12.95;100.00;100843.22;4973710;28;20284;-73
2023/09/07 04:58:33;;;;;;;9.53;7.03;;;;;;;12.93;100.00;100844.97;4977254;28;21233;-73
2023/09/07 05:01:08;;;;;;;13.37;7.07;;;;;;;12.96;100.00;100852.09;4983519;28;20243;-73
2023/09/07 05:03:35;;;;;;;12.63;7.20;;;;;;;12.93;100.00;100836.09;4976038;28;20228;-74
2023/09/07 05:06:03;;;;;;;10.40;7.37;;;;;;;12.98;100.00;100851.22;4983344;28;20308;-73
2023/09/07 05:08:30;;;;;;;10.90;7.67;;;;;;;13.13;100.00;100847.81;4982270;28;20313;-73
2023/09/07 05:11:00;;;;;;;10.53;7.50;;;;;;;13.13;100.00;100854.03;4980686;28;20206;-74
2023/09/07 05:13:27;;;;;;;10.93;7.03;;;;;;;13.17;100.00;100855.00;4977003;28;20272;-73
2023/09/07 05:15:55;;;;;;;11.60;8.07;;;;;;;13.20;100.00;100857.69;4996027;28;20644;-72
2023/09/07 05:18:22;;;;;;;14.73;8.20;;;;;;;13.22;100.00;100860.38;4977632;28;20292;-74
2023/09/07 05:20:51;;;;;;;12.30;7.80;;;;;;;13.25;100.00;100860.41;4973982;28;20577;-73
2023/09/07 05:23:19;;;;;;;12.33;8.20;;;;;;;13.23;100.00;100852.41;4980774;28;20228;-73
2023/09/07 05:25:47;;;;;;;10.63;7.03;;;;;;;13.30;100.00;100856.03;4978939;28;20293;-73
2023/09/07 05:28:14;;;;;;;11.10;7.87;;;;;;;13.37;100.00;100863.19;4985757;28;20198;-73
2023/09/07 05:30:42;;;;;;;10.60;7.33;;;;;;;13.37;100.00;100858.75;4980092;28;20288;-73
2023/09/07 05:33:10;;;;;;;11.63;7.80;;;;;;;13.44;100.00;100867.69;4973985;28;20245;-74
2023/09/07 05:35:37;;;;;;;13.03;7.83;;;;;;;13.54;100.00;100868.66;4977233;28;20713;-73
2023/09/07 05:38:04;;;;;;;11.97;7.90;;;;;;;13.72;100.00;100868.81;4979907;28;20197;-74
2023/09/07 05:40:36;;;;;;;13.67;8.33;;;;;;;13.77;100.00;100869.75;4982934;28;20292;-73
2023/09/07 05:43:03;;;;;;;12.77;8.07;;;;;;;13.83;100.00;100871.56;4977190;28;20228;-73
2023/09/07 05:45:38;;;;;;;10.60;7.77;;;;;;;13.89;100.00;100874.28;4975473;28;20275;-73
2023/09/07 05:48:06;;;;;;;11.53;7.70;;;;;;;13.95;100.00;100872.53;4978199;28;20209;-74
2023/09/07 05:50:35;;;;;;;14.07;7.90;;;;;;;14.01;100.00;100871.72;4981044;28;20200;-73
2023/09/07 05:53:02;;;;;;;10.50;7.60;;;;;;;14.07;100.00;100863.78;4966929;28;20224;-72
2023/09/07 05:55:29;;;;;;;10.00;7.37;;;;;;;14.11;100.00;100860.25;4973177;28;20205;-72
2023/09/07 05:57:56;;;;;;;11.23;7.57;;;;;;;14.19;100.00;100865.63;4981011;28;20215;-72
2023/09/07 06:00:23;;;;;;;10.27;7.30;;;;;;;14.27;100.00;100872.75;4966909;28;20588;-71
2023/09/07 06:02:50;;;;;;;10.27;7.20;;;;;;;14.33;100.00;100864.81;4971452;28;20230;-72
2023/09/07 06:05:17;;;;;;;9.93;7.47;;;;;;;14.45;100.00;100876.47;4975759;28;20209;-71
2023/09/07 06:07:44;;;;;;;10.13;7.47;;;;;;;14.57;100.00;100880.09;4974857;28;20204;-71
2023/09/07 06:10:11;;;;;;;11.80;7.33;;;;;;;14.67;100.00;100873.91;4978324;28;20757;-72
2023/09/07 06:12:37;;;;;;;12.23;6.90;;;;;;;14.80;100.00;100876.59;4976777;28;20217;-72
2023/09/07 06:15:04;;;;;;;11.83;7.40;;;;;;;15.00;100.00;100880.25;4973518;28;20206;-73
2023/09/07 06:17:30;;;;;;;12.27;7.50;;;;;;;15.14;100.00;100875.84;4983821;28;20223;-73
2023/09/07 06:19:57;;;;;;;11.10;7.20;;;;;;;15.27;100.00;100883.00;4981135;28;20209;-72
2023/09/07 06:22:23;;;;;;;18.70;7.70;;;;;;;15.48;100.00;100875.91;4982959;28;20788;-72
2023/09/07 06:24:50;;;;;;;10.83;6.83;;;;;;;15.55;100.00;100870.56;4972426;28;20209;-74
2023/09/07 06:27:16;;;;;;;12.17;6.67;;;;;;;15.72;100.00;100881.31;4972598;28;20226;-74
2023/09/07 06:29:43;;;;;;;12.47;6.83;;;;;;;15.85;100.00;100882.19;4980384;28;20201;-72
2023/09/07 06:32:09;;;;;;;9.67;6.40;;;;;;;15.97;100.00;100887.53;4978633;28;20316;-72
2023/09/07 06:34:36;;;;;;;14.00;7.13;;;;;;;16.15;100.00;100889.31;4973024;28;20588;-74
2023/09/07 06:37:02;;;;;;;10.23;6.67;;;;;;;16.38;100.00;100891.91;4970676;28;20208;-72
2023/09/07 06:39:29;;;;;;;15.30;7.40;;;;;;;16.60;100.00;100882.97;4980212;28;20235;-72
2023/09/07 06:41:55;;;;;;;12.20;6.83;;;;;;;16.82;100.00;100889.16;4974977;28;20217;-71
2023/09/07 06:44:22;;;;;;;11.73;6.97;;;;;;;17.05;100.00;100899.75;4972794;28;20224;-72
2023/09/07 06:46:49;;;;;;;12.63;6.03;;;;;;;17.30;100.00;100892.50;4974978;28;20232;-72
2023/09/07 06:49:15;;;;;;;12.83;6.20;;;;;;;17.61;100.00;100901.19;4980199;28;20654;-72
2023/09/07 06:51:42;;;;;;;16.60;6.00;;;;;;;17.90;100.00;100901.00;4976931;28;20259;-72
2023/09/07 06:54:08;;;;;;;16.53;6.60;;;;;;;18.13;100.00;100899.91;4976638;28;20696;-73
2023/09/07 06:56:35;;;;;;;14.47;6.40;;;;;;;18.37;100.00;100898.75;4981550;28;20205;-74
2023/09/07 06:59:01;;;;;;;9.33;6.00;;;;;;;18.64;100.00;100905.66;4972574;28;20625;-73
2023/09/07 07:01:28;;;;;;;11.27;5.43;;;;;;;18.86;100.00;100897.38;4977594;28;20236;-70
2023/09/07 07:03:56;;;;;;;9.43;5.20;;;;;;;19.30;100.00;100905.72;4976424;28;20706;-73
2023/09/07 07:06:24;;;;;;;11.60;5.37;;;;;;;19.90;100.00;100905.72;4977926;28;20705;-73
2023/09/07 07:08:51;;;;;;;10.70;5.30;;;;;;;20.77;100.00;100897.88;4970858;28;20676;-73
2023/09/07 07:11:19;;;;;;;7.07;5.10;;;;;;;21.75;100.00;100912.81;4976450;28;20299;-73
2023/09/07 07:13:45;;;;;;;6.78;5.30;;;;;;;22.28;100.00;100900.69;4974892;28;20217;-73
2023/09/07 07:16:13;;;;;;;9.63;5.43;;;;;;;23.13;100.00;100892.88;4984092;28;20638;-73
2023/09/07 07:18:40;;;;;;;8.57;5.35;;;;;;;23.43;98.32;100903.69;4976322;28;20298;-72
2023/09/07 07:21:09;;;;;;;9.63;4.82;;;;;;;24.06;93.90;100899.88;4978775;28;20208;-73
2023/09/07 07:23:36;;;;;;;10.07;5.10;;;;;;;24.38;85.80;100904.16;4999652;23;20225;-72
2023/09/07 07:26:02;;;;;;;8.32;5.13;;;;;;;24.65;78.06;100908.63;4992675;28;20220;-72
2023/09/07 07:28:29;;;;;;;10.52;5.10;;;;;;;24.72;69.86;100905.66;4994953;28;20379;-72
2023/09/07 07:30:55;;;;;;;8.68;5.03;;;;;;;24.28;70.37;100914.44;5001797;28;20232;-72
2023/09/07 07:33:22;;;;;;;11.63;4.78;;;;;;;24.09;70.94;100907.88;4990181;28;20224;-70
2023/09/07 07:35:48;;;;;;;7.70;5.13;;;;;;;23.98;71.11;100919.03;4981222;28;20201;-70
2023/09/07 07:38:15;;;;;;;9.52;5.03;;;;;;;23.64;70.73;100911.16;4984345;28;20201;-71
2023/09/07 07:40:42;;;;;;;12.27;4.82;;;;;;;23.37;72.63;100914.69;4982391;28;20207;-70
2023/09/07 07:43:10;;;;;;;8.00;4.75;;;;;;;22.80;74.16;100910.97;4976089;28;20692;-71
2023/09/07 07:45:38;;;;;;;8.05;5.07;;;;;;;22.77;76.00;100912.81;4995545;28;20255;-72
2023/09/07 07:48:08;;;;;;;10.88;5.55;;;;;;;22.77;75.47;100913.72;4977269;28;20197;-73
2023/09/07 07:50:41;;;;;;;10.88;4.90;;;;;;;22.72;75.69;100921.06;4980646;28;20205;-71
2023/09/07 07:53:07;;;;;;;7.63;4.85;;;;;;;22.64;75.11;100916.81;4976425;28;20315;-71
2023/09/07 07:55:38;;;;;;;10.02;5.53;;;;;;;22.56;75.61;100914.34;4981759;28;20299;-70
2023/09/07 07:58:07;;;;;;;7.63;5.28;;;;;;;22.64;76.44;100904.19;4979917;28;20284;-71
2023/09/07 08:00:38;;;;;;;11.77;5.47;;;;;;;22.61;74.90;100923.19;4977608;28;20288;-69
2023/09/07 08:03:08;;;;;;;8.35;5.43;;;;;;;22.57;75.63;100915.22;4981082;28;20711;-71
2023/09/07 08:05:35;;;;;;;7.18;5.40;;;;;;;22.62;76.26;100924.06;4980536;28;20343;-71
2023/09/07 08:08:02;;;;;;;5.85;4.75;;;;;;;22.72;75.21;100917.47;4981752;28;21411;-69
2023/09/07 08:10:29;;;;;;;9.20;6.03;;;;;;;22.92;74.79;100919.66;4975006;28;20264;-71
2023/09/07 08:12:58;;;;;;;6.95;5.03;;;;;;;23.04;72.36;100905.78;4983723;28;20271;-71
2023/09/07 08:15:24;;;;;;;5.95;4.78;;;;;;;23.24;72.49;100922.31;4985298;28;20251;-71
2023/09/07 08:17:51;;;;;;;11.95;5.35;;;;;;;23.17;71.64;100919.81;4986357;28;20204;-70
2023/09/07 08:20:19;;;;;;;9.45;5.15;;;;;;;22.98;71.76;100914.06;4982773;28;20205;-71
2023/09/07 08:22:45;;;;;;;6.93;4.78;;;;;;;23.00;72.99;100906.81;4982274;28;20261;-71
2023/09/07 08:25:13;;;;;;;7.80;5.93;;;;;;;23.10;72.53;100905.59;4984613;28;20197;-73
2023/09/07 08:27:44;;;;;;;9.13;4.97;;;;;;;23.25;71.73;100904.28;4980711;28;20272;-72
2023/09/07 08:30:18;;;;;;;7.30;4.70;;;;;;;23.27;71.22;100906.00;4979234;28;20216;-70
2023/09/07 08:32:45;;;;;;;6.65;5.05;;;;;;;23.23;70.10;100908.84;4983997;28;20231;-72
2023/09/07 08:35:13;;;;;;;7.45;4.80;;;;;;;23.29;70.60;100911.34;4987121;28;20238;-71
2023/09/07 08:37:40;;;;;;;9.02;4.60;;;;;;;23.34;71.13;100902.16;4980029;28;20839;-72
2023/09/07 08:40:08;;;;;;;8.35;4.97;;;;;;;23.43;70.75;100893.75;4989639;28;20201;-73
2023/09/07 08:42:38;;;;;;;9.05;5.00;;;;;;;23.65;69.37;100901.25;4985393;28;20304;-73
2023/09/07 08:45:08;;;;;;;7.60;4.78;;;;;;;23.92;69.33;100903.00;4982173;28;20442;-72
2023/09/07 08:47:37;;;;;;;13.77;5.10;;;;;;;24.11;67.85;100892.47;4977158;28;20256;-73
2023/09/07 08:50:07;;;;;;;6.55;4.93;;;;;;;24.38;68.09;100898.75;4978736;28;20205;-72
2023/09/07 08:52:35;;;;;;;10.55;4.97;;;;;;;24.46;66.18;100893.09;4982798;28;20245;-72
2023/09/07 08:55:05;;;;;;;6.35;4.60;;;;;;;24.55;66.66;100890.94;4977590;28;20719;-71
2023/09/07 08:57:32;;;;;;;8.98;4.90;;;;;;;24.73;65.11;100888.47;4984455;28;20208;-72
2023/09/07 08:59:59;;;;;;;15.00;4.75;;;;;;;24.75;64.19;100894.72;4985131;28;20282;-71
2023/09/07 09:02:26;;;;;;;9.00;4.97;;;;;;;24.75;63.20;100892.91;4978658;28;20229;-73
2023/09/07 09:04:53;;;;;;;11.98;4.53;;;;;;;24.85;64.37;100890.75;4980204;28;20208;-71
2023/09/07 09:07:21;;;;;;;13.25;4.93;;;;;;;24.93;62.62;100885.91;4982116;28;20245;-73
2023/09/07 09:09:48;;;;;;;6.43;4.43;;;;;;;25.13;62.84;100898.72;4980106;28;20236;-74
2023/09/07 09:12:15;;;;;;;9.77;4.97;;;;;;;25.24;61.49;100899.22;4978962;28;20716;-73
2023/09/07 09:14:44;;;;;;;8.63;5.00;;;;;;;25.39;61.44;100904.03;4981235;28;20209;-71
2023/09/07 09:17:15;;;;;;;10.25;4.80;;;;;;;25.52;61.66;100902.59;4979327;28;20681;-71
2023/09/07 09:19:41;;;;;;;8.38;4.65;;;;;;;25.63;59.10;100894.03;4978547;28;20705;-72
2023/09/07 09:22:09;;;;;;;7.47;4.75;;;;;;;25.79;59.39;100897.03;4986352;28;20654;-72
2023/09/07 09:24:36;;;;;;;7.93;4.78;;;;;;;25.92;58.54;100892.84;4987665;28;20291;-71
2023/09/07 09:27:03;;;;;;;7.38;4.80;;;;;;;26.00;58.70;100890.69;4978113;28;20257;-69
2023/09/07 09:29:34;;;;;;;10.90;5.65;;;;;;;26.16;58.77;100893.66;4976852;28;20209;-72
2023/09/07 09:32:04;;;;;;;8.13;4.70;;;;;;;26.22;58.45;100883.41;4976134;28;20300;-71
2023/09/07 09:34:38;;;;;;;10.75;5.03;;;;;;;26.18;57.12;100889.91;4980289;28;20233;-72
2023/09/07 09:37:12;;;;;;;11.60;4.82;;;;;;;26.21;57.91;100888.91;4982121;28;20677;-72
2023/09/07 09:39:40;;;;;;;7.03;4.45;;;;;;;26.24;56.31;100878.78;4982967;28;20687;-72
2023/09/07 09:42:07;;;;;;;7.03;5.07;;;;;;;26.41;57.20;100877.19;4981120;28;20587;-74
2023/09/07 09:44:36;;;;;;;11.95;5.00;;;;;;;26.32;56.74;100872.13;4982279;28;20581;-73
2023/09/07 09:47:03;;;;;;;8.63;4.80;;;;;;;26.27;56.86;100875.06;4979434;28;20228;-72
2023/09/07 09:49:31;;;;;;;10.18;4.47;;;;;;;26.36;57.20;100881.94;4978189;28;20689;-72
2023/09/07 09:51:58;;;;;;;8.23;4.70;;;;;;;26.51;57.07;100867.69;4985811;28;20253;-73
2023/09/07 09:54:26;;;;;;;8.23;4.63;;;;;;;26.61;56.79;100868.16;4982821;28;20264;-70
2023/09/07 09:56:53;;;;;;;9.13;4.68;;;;;;;26.55;55.85;100866.59;4979102;28;20197;-71
2023/09/07 09:59:20;;;;;;;10.45;5.20;;;;;;;26.56;56.21;100862.06;4977544;28;20296;-72
2023/09/07 10:01:50;;;;;;;12.40;4.97;;;;;;;26.67;56.46;100876.03;4980469;28;20208;-71
2023/09/07 10:04:18;;;;;;;11.02;4.50;;;;;;;26.61;56.08;100866.31;4975149;28;20219;-71
2023/09/07 10:06:58;;;;;;;7.38;5.35;;;;;;;26.69;56.61;100855.97;4981767;28;20218;-70
2023/09/07 10:09:30;;;;;;;9.27;4.85;;;;;;;26.79;55.94;100860.03;4979383;28;20312;-72
2023/09/07 10:11:59;;;;;;;8.73;5.32;;;;;;;26.57;55.57;100859.25;4976662;28;20286;-70
2023/09/07 10:14:25;;;;;;;9.05;5.40;;;;;;;26.46;56.27;100859.75;4990156;28;20204;-72
2023/09/07 10:16:55;;;;;;;14.43;5.00;;;;;;;26.47;57.10;100845.22;4986046;28;20568;-73
2023/09/07 10:19:24;;;;;;;9.77;5.10;;;;;;;26.66;55.84;100852.53;4986088;28;20200;-72
2023/09/07 10:21:53;;;;;;;9.40;4.55;;;;;;;26.73;56.50;100856.72;4983814;28;20252;-70
2023/09/07 10:24:29;;;;;;;6.97;4.80;;;;;;;26.96;55.84;100855.66;4979453;28;20676;-73
2023/09/07 10:27:04;;;;;;;5.90;4.43;;;;;;;27.12;54.96;100852.16;4982650;28;20308;-70
2023/09/07 10:30:00;;;;;;;8.38;4.75;;;;;;;27.22;54.00;100846.28;4984777;28;20204;-71
2023/09/07 10:32:37;;;;;;;8.00;4.40;;;;;;;27.32;54.05;100848.50;4965557;28;20225;-73
2023/09/07 10:35:12;;;;;;;7.05;4.95;;;;;;;27.34;54.52;100834.84;4987205;28;20236;-73
2023/09/07 10:37:39;;;;;;;13.75;5.05;;;;;;;27.45;54.19;100843.34;4983565;28;20223;-73
2023/09/07 10:40:11;;;;;;;7.65;4.82;;;;;;;27.43;52.45;100846.13;4976264;28;20213;-72
2023/09/07 10:42:38;;;;;;;7.75;4.97;;;;;;;27.40;52.93;100848.13;4980909;28;20268;-74
2023/09/07 10:45:10;;;;;;;8.13;4.68;;;;;;;27.45;52.63;100835.19;4981746;28;20288;-73
2023/09/07 10:47:40;;;;;;;9.02;5.13;;;;;;;27.49;51.41;100836.78;4983578;28;20224;-72
2023/09/07 10:50:07;;;;;;;7.28;4.80;;;;;;;27.39;51.62;100849.09;4999442;28;20207;-73
2023/09/07 10:52:33;;;;;;;7.60;4.70;;;;;;;27.36;52.68;100841.06;4982147;28;20232;-72
2023/09/07 10:55:00;;;;;;;6.30;5.03;;;;;;;27.52;52.39;100835.75;4986144;28;20197;-73
2023/09/07 10:57:27;;;;;;;9.02;4.90;;;;;;;27.49;51.80;100831.34;4980473;28;20209;-74
2023/09/07 10:59:55;;;;;;;7.35;4.65;;;;;;;27.54;51.87;100815.66;4981813;28;20239;-74
2023/09/07 11:02:21;;;;;;;5.32;4.70;;;;;;;27.69;51.61;100819.50;4993043;28;20253;-75
2023/09/07 11:04:48;;;;;;;6.85;4.65;;;;;;;27.90;50.21;100833.84;5004767;28;20232;-74
2023/09/07 11:07:14;;;;;;;6.90;5.05;;;;;;;27.61;50.58;100829.84;5004610;28;20227;-72
2023/09/07 11:09:42;;;;;;;6.55;4.70;;;;;;;27.65;51.28;100820.63;4984041;28;20209;-72
2023/09/07 11:12:13;;;;;;;5.60;4.43;;;;;;;27.80;51.67;100825.28;4979524;28;20205;-73
2023/09/07 11:14:39;;;;;;;9.20;5.22;;;;;;;27.93;50.97;100826.41;4980430;28;20212;-71
2023/09/07 11:17:06;;;;;;;6.88;5.18;;;;;;;28.02;49.80;100827.78;4982142;28;20247;-74
2023/09/07 11:19:33;;;;;;;9.13;5.15;;;;;;;27.70;49.41;100815.81;4983928;28;20201;-72